Ar Rayyan, Qatar
Current Conditions -  °F | °C
As of 10:58 PM on Thursday 23 Oct 2014 (Local Time) from KQIR Reporting Station
Clear Clear  
Wind Chill: 77°   Ceiling: Unl
Heat Index: 78°   Visibility: 6mi
Dew Point: 63°   Wind: 13mph
Humidity: 63%   Direction: 320°NW
Pressure: 29.94"   Gusts: NA
Location:  25.32°N, 51.37°E
Report Text: KQIR 231958Z 32011KT 9999 CLR 25/17 A2994 RMK AO2A SLP140 T02480174 $
Loading
Personal Weather Stations






























Interactive Weather Map
Tropical Storm Tracking
New forecast layout! Learn more

10-Day Weather Forecast

Advertisements
Track Severe Weather on mobile